Time;durP1;ratioP1;P1;durP2;ratioP2;P2;SDS_P1;SDS_P2;PMS_P1;PMS_P2;Temp;Humidity;BMP_temperature;BMP_pressure;BME280_temperature;BME280_humidity;BME280_pressure;Samples;Min_cycle;Max_cycle;Signal;HPM_P1;HPM_P2
2021/09/07 00:00:47;;;;;;;18.00;13.20;;;;;;;9.80;82.12;98301.72;116223;1182;59504;-74
2021/09/07 00:03:17;;;;;;;18.30;12.80;;;;;;;9.77;82.54;98300.80;116237;1184;59549;-76
2021/09/07 00:05:47;;;;;;;24.50;13.30;;;;;;;9.74;82.35;98300.60;116227;1184;71254;-76
2021/09/07 00:08:16;;;;;;;18.90;13.40;;;;;;;9.73;82.64;98300.70;116222;1179;67274;-76
2021/09/07 00:10:46;;;;;;;17.40;12.40;;;;;;;9.71;83.55;98301.05;116171;1184;68640;-75
2021/09/07 00:13:16;;;;;;;19.80;12.50;;;;;;;9.67;84.01;98302.96;116182;1184;59716;-76
2021/09/07 00:15:47;;;;;;;19.10;13.20;;;;;;;9.66;83.44;98301.80;116211;1183;59577;-75
2021/09/07 00:18:18;;;;;;;16.20;12.40;;;;;;;9.64;83.25;98299.29;116202;1183;70399;-74
2021/09/07 00:20:48;;;;;;;18.00;12.70;;;;;;;9.63;83.87;98301.91;116212;1182;68998;-74
2021/09/07 00:23:18;;;;;;;16.60;11.50;;;;;;;9.63;83.53;98300.25;116082;1184;68217;-74
2021/09/07 00:25:47;;;;;;;15.30;10.40;;;;;;;9.62;84.06;98300.11;116201;1184;59594;-77
2021/09/07 00:28:18;;;;;;;16.50;10.80;;;;;;;9.58;83.65;98301.19;116234;1179;59597;-73
2021/09/07 00:30:48;;;;;;;16.80;9.10;;;;;;;9.55;83.06;98300.13;116230;1184;70592;-76
2021/09/07 00:33:18;;;;;;;14.60;10.50;;;;;;;9.55;84.01;98305.89;116207;1183;69095;-76
2021/09/07 00:35:48;;;;;;;17.70;10.60;;;;;;;9.58;83.40;98303.88;116201;1183;69177;-75
2021/09/07 00:38:19;;;;;;;17.70;11.20;;;;;;;9.63;83.67;98305.38;116230;1180;59537;-73
2021/09/07 00:40:50;;;;;;;17.50;10.90;;;;;;;9.69;83.76;98304.38;116175;1184;59518;-71
2021/09/07 00:43:19;;;;;;;14.70;10.40;;;;;;;9.74;82.84;98299.82;116167;1182;71364;-74
2021/09/07 00:45:49;;;;;;;16.80;10.70;;;;;;;9.78;83.26;98299.52;116241;1183;69076;-75
2021/09/07 00:48:19;;;;;;;15.70;10.60;;;;;;;9.83;83.41;98294.48;116178;1179;69032;-74
2021/09/07 00:50:49;;;;;;;16.40;10.40;;;;;;;9.89;82.77;98295.37;116199;1184;59561;-76
2021/09/07 00:53:19;;;;;;;18.30;10.90;;;;;;;9.92;82.58;98293.90;116224;1180;59553;-76
2021/09/07 00:55:51;;;;;;;14.60;9.40;;;;;;;9.98;82.99;98290.17;116215;1179;71328;-73
2021/09/07 00:58:21;;;;;;;13.70;9.40;;;;;;;10.01;82.68;98291.72;116211;1183;67863;-76
2021/09/07 01:00:50;;;;;;;15.50;9.10;;;;;;;10.03;82.58;98291.45;116100;1184;68396;-76
2021/09/07 01:03:23;;;;;;;13.70;9.10;;;;;;;10.04;82.29;98292.46;116188;1179;59494;-77
2021/09/07 01:05:53;;;;;;;19.80;10.50;;;;;;;10.02;82.07;98291.00;116202;1179;59562;-76
2021/09/07 01:08:23;;;;;;;14.00;9.70;;;;;;;9.95;81.69;98288.73;116162;1183;70598;-75
2021/09/07 01:10:53;;;;;;;13.50;9.40;;;;;;;9.87;81.61;98291.35;116182;1179;68193;-75
2021/09/07 01:13:24;;;;;;;16.70;9.50;;;;;;;9.80;82.13;98294.52;116202;1182;69209;-76
2021/09/07 01:15:54;;;;;;;16.10;10.50;;;;;;;9.75;81.74;98292.85;116172;1183;59533;-76
2021/09/07 01:18:24;;;;;;;14.30;9.90;;;;;;;9.69;81.45;98292.36;116206;1184;59541;-75
2021/09/07 01:20:54;;;;;;;15.60;9.40;;;;;;;9.64;81.78;98295.11;116230;1179;70564;-77
2021/09/07 01:23:26;;;;;;;14.20;10.00;;;;;;;9.60;81.72;98296.98;116217;1183;68644;-76
2021/09/07 01:25:56;;;;;;;14.10;9.70;;;;;;;9.56;81.62;98297.42;116180;1183;68717;-75
2021/09/07 01:28:29;;;;;;;;;;;;;;;9.54;81.40;98293.35;116239;1182;59551;-76
2021/09/07 01:31:03;;;;;;;14.90;8.30;;;;;;;9.50;81.29;98290.60;116207;1184;59924;-75
2021/09/07 01:33:35;;;;;;;14.50;8.70;;;;;;;9.49;81.17;98291.80;116104;1184;70291;-75
2021/09/07 01:36:06;;;;;;;17.90;11.10;;;;;;;9.47;81.17;98293.02;116146;1179;69068;-76
2021/09/07 01:38:36;;;;;;;16.90;10.70;;;;;;;9.45;81.53;98291.37;116206;1184;68406;-74
2021/09/07 01:41:06;;;;;;;16.80;10.90;;;;;;;9.46;81.74;98289.23;116184;1181;59572;-76
2021/09/07 01:43:36;;;;;;;14.50;9.90;;;;;;;9.47;81.75;98295.94;116191;1183;59571;-74
2021/09/07 01:46:06;;;;;;;15.20;9.70;;;;;;;9.46;81.96;98294.20;116135;1183;70572;-71
2021/09/07 01:48:36;;;;;;;;;;;;;;;9.46;82.05;98295.16;116237;1179;67457;-72
2021/09/07 01:51:07;;;;;;;13.00;8.60;;;;;;;9.45;82.09;98292.25;116238;1179;69010;-71
2021/09/07 01:53:37;;;;;;;13.20;9.00;;;;;;;9.47;81.81;98292.30;116257;1179;59558;-73
2021/09/07 01:56:08;;;;;;;12.30;8.00;;;;;;;9.46;81.48;98296.42;116213;1182;59529;-73
2021/09/07 01:58:38;;;;;;;12.90;9.40;;;;;;;9.46;82.82;98296.02;116223;1184;71348;-75
2021/09/07 02:01:08;;;;;;;14.50;8.60;;;;;;;9.44;82.28;98298.19;116218;1183;69183;-73
2021/09/07 02:03:38;;;;;;;15.60;8.90;;;;;;;9.39;81.88;98299.11;116204;1180;68432;-76
2021/09/07 02:06:09;;;;;;;11.80;8.30;;;;;;;9.33;82.29;98295.84;116148;1183;59504;-72
2021/09/07 02:08:39;;;;;;;;;;;;;;;9.28;81.70;98298.19;116238;1179;59534;-74
2021/09/07 02:11:10;;;;;;;11.10;7.80;;;;;;;9.22;81.79;98296.52;116202;1184;70557;-76
2021/09/07 02:13:42;;;;;;;13.30;8.70;;;;;;;9.18;83.09;98294.98;116206;1183;68428;-72
2021/09/07 02:16:12;;;;;;;13.10;9.40;;;;;;;9.15;83.56;98300.92;116237;1183;68233;-74
2021/09/07 02:18:43;;;;;;;13.80;9.00;;;;;;;9.13;82.84;98295.65;116223;1182;59566;-72
2021/09/07 02:21:14;;;;;;;14.30;9.20;;;;;;;9.11;82.22;98298.99;116240;1179;59559;-74
2021/09/07 02:23:45;;;;;;;;;;;;;;;9.09;83.08;98302.41;116219;1184;70563;-72
2021/09/07 02:26:16;;;;;;;12.60;8.80;;;;;;;9.06;82.27;98299.28;116203;1183;68421;-78
2021/09/07 02:28:48;;;;;;;15.10;9.70;;;;;;;9.03;82.74;98299.63;116161;1179;68514;-76
2021/09/07 02:31:18;;;;;;;13.10;8.90;;;;;;;9.03;82.76;98300.89;116196;1179;59611;-75
2021/09/07 02:33:51;;;;;;;12.80;8.70;;;;;;;9.01;82.62;98298.94;116183;1179;59559;-76
2021/09/07 02:36:23;;;;;;;11.90;9.00;;;;;;;8.99;83.36;98300.86;116169;1184;71341;-75
2021/09/07 02:38:54;;;;;;;15.90;11.10;;;;;;;8.98;82.85;98300.79;116128;1181;69151;-75
2021/09/07 02:41:24;;;;;;;17.10;11.00;;;;;;;8.99;82.93;98301.65;116184;1184;68349;-73
2021/09/07 02:43:54;;;;;;;13.20;9.80;;;;;;;9.00;83.15;98298.71;116171;1179;59537;-76
2021/09/07 02:46:25;;;;;;;13.60;9.50;;;;;;;9.00;83.30;98300.53;116157;1184;59505;-72
2021/09/07 02:48:55;;;;;;;17.40;9.30;;;;;;;9.02;83.29;98299.96;116181;1180;70778;-72
2021/09/07 02:51:25;;;;;;;16.20;9.80;;;;;;;9.02;82.94;98297.04;116237;1179;69173;-74
2021/09/07 02:53:56;;;;;;;;;;;;;;;9.03;82.85;98297.89;116248;1183;69052;-71
2021/09/07 02:56:26;;;;;;;16.10;9.70;;;;;;;9.02;83.13;98299.73;116206;1184;60393;-72
2021/09/07 02:58:57;;;;;;;12.80;8.90;;;;;;;8.99;82.77;98305.20;116226;1181;60337;-72
2021/09/07 03:01:27;;;;;;;12.90;8.50;;;;;;;8.95;82.53;98302.85;116163;1184;71370;-74
2021/09/07 03:03:58;;;;;;;;;;;;;;;8.90;82.81;98303.69;116202;1179;68976;-74
2021/09/07 03:06:28;;;;;;;16.10;8.40;;;;;;;8.86;82.95;98303.26;116170;1184;68079;-75
2021/09/07 03:08:59;;;;;;;12.00;8.10;;;;;;;8.82;82.74;98303.29;116170;1184;60368;-73
2021/09/07 03:11:29;;;;;;;16.70;9.10;;;;;;;8.78;82.66;98305.11;116082;1182;60302;-72
2021/09/07 03:13:59;;;;;;;12.10;8.50;;;;;;;8.76;83.65;98304.58;116210;1183;72181;-75
2021/09/07 03:16:36;;;;;;;13.50;9.30;;;;;;;8.75;83.64;98309.08;116126;1184;69180;-76
2021/09/07 03:19:08;;;;;;;13.80;8.80;;;;;;;8.71;82.68;98310.55;116175;1184;69299;-75
2021/09/07 03:21:38;;;;;;;13.30;8.70;;;;;;;8.67;83.61;98312.64;116157;1183;60359;-75
2021/09/07 03:24:08;;;;;;;12.90;8.10;;;;;;;8.64;84.34;98316.61;116166;1184;60351;-73
2021/09/07 03:26:38;;;;;;;12.30;8.50;;;;;;;8.62;84.24;98317.50;116213;1179;72033;-73
2021/09/07 03:29:08;;;;;;;12.80;8.60;;;;;;;8.59;83.72;98315.29;116179;1179;69119;-76
2021/09/07 03:31:42;;;;;;;12.30;9.00;;;;;;;8.58;84.80;98323.41;116120;1184;69208;-75
2021/09/07 03:34:12;;;;;;;11.90;8.80;;;;;;;8.55;83.54;98318.88;116162;1182;60362;-72
2021/09/07 03:36:42;;;;;;;17.10;9.50;;;;;;;8.51;83.32;98313.08;116183;1181;60422;-74
2021/09/07 03:39:13;;;;;;;;;;;;;;;8.47;83.12;98318.61;116221;1184;72128;-75
2021/09/07 03:41:43;;;;;;;13.20;8.70;;;;;;;8.41;83.08;98320.38;116189;1184;68415;-73
2021/09/07 03:44:14;;;;;;;12.60;8.30;;;;;;;8.38;83.78;98322.77;116179;1179;68299;-74
2021/09/07 03:46:44;;;;;;;12.20;8.70;;;;;;;8.36;84.34;98321.52;116177;1180;60294;-74
2021/09/07 03:49:13;;;;;;;13.40;8.60;;;;;;;8.34;84.99;98319.17;116080;1184;60413;-72
2021/09/07 03:51:44;;;;;;;13.00;9.30;;;;;;;8.32;84.74;98323.27;116199;1184;71222;-74
2021/09/07 03:54:15;;;;;;;12.50;8.90;;;;;;;8.31;83.98;98324.69;116176;1184;69403;-72
2021/09/07 03:56:44;;;;;;;16.10;10.60;;;;;;;8.32;83.76;98327.05;116145;1179;67499;-73
2021/09/07 03:59:15;;;;;;;16.90;10.00;;;;;;;8.33;83.65;98325.30;116231;1183;61695;-75
2021/09/07 04:01:45;;;;;;;17.00;10.40;;;;;;;8.33;83.84;98322.94;116184;1183;60768;-74
2021/09/07 04:04:17;;;;;;;13.90;9.40;;;;;;;8.32;84.07;98323.10;116207;1182;71563;-73
2021/09/07 04:06:48;;;;;;;13.00;8.40;;;;;;;8.33;84.49;98322.79;116177;1179;69224;-72
2021/09/07 04:09:19;;;;;;;13.30;9.20;;;;;;;8.34;84.61;98327.14;116134;1184;68698;-72
2021/09/07 04:11:49;;;;;;;11.70;7.90;;;;;;;8.32;84.07;98327.83;116112;1184;60355;-74
2021/09/07 04:14:19;;;;;;;12.20;7.90;;;;;;;8.32;84.89;98326.18;116260;1183;60318;-75
2021/09/07 04:16:51;;;;;;;16.60;9.60;;;;;;;8.35;85.25;98327.38;116200;1184;71344;-75
2021/09/07 04:19:20;;;;;;;14.00;7.90;;;;;;;8.37;84.61;98324.84;116110;1184;68305;-73
2021/09/07 04:21:50;;;;;;;11.30;8.70;;;;;;;8.38;84.73;98326.70;116169;1184;69231;-74
2021/09/07 04:24:19;;;;;;;12.00;8.70;;;;;;;8.47;84.70;98328.48;116168;1184;60336;-74
2021/09/07 04:26:48;;;;;;;12.40;8.40;;;;;;;8.67;84.38;98329.84;116161;1184;60311;-72
2021/09/07 04:29:17;;;;;;;11.30;7.40;;;;;;;8.75;83.58;98327.70;116166;1180;72422;-72
2021/09/07 04:31:47;;;;;;;11.50;7.30;;;;;;;8.79;83.33;98336.60;116233;1183;68523;-77
2021/09/07 04:34:16;;;;;;;11.10;6.70;;;;;;;8.81;83.61;98332.42;116194;1183;69310;-73
2021/09/07 04:36:45;;;;;;;10.60;6.80;;;;;;;8.83;83.50;98333.98;116188;1184;60368;-72
2021/09/07 04:39:15;;;;;;;11.00;7.80;;;;;;;8.92;83.27;98338.39;116172;1184;60346;-75
2021/09/07 04:41:44;;;;;;;13.30;7.80;;;;;;;9.07;83.46;98337.23;116212;1184;70510;-75
2021/09/07 04:44:14;;;;;;;17.20;8.40;;;;;;;9.31;82.26;98339.23;116243;1184;69070;-74
2021/09/07 04:46:43;;;;;;;19.30;6.80;;;;;;;9.68;81.38;98344.05;116188;1179;69224;-73
2021/09/07 04:49:12;;;;;;;12.20;7.00;;;;;;;10.06;79.94;98347.25;116176;1180;60346;-74
2021/09/07 04:51:42;;;;;;;17.20;7.20;;;;;;;10.36;79.73;98352.89;116175;1184;60333;-76
2021/09/07 04:54:11;;;;;;;11.90;6.70;;;;;;;10.65;78.69;98353.11;116053;1181;70441;-76
2021/09/07 04:56:40;;;;;;;10.00;5.70;;;;;;;10.88;76.72;98358.45;116151;1184;70260;-76
2021/09/07 04:59:09;;;;;;;11.10;7.20;;;;;;;11.14;75.30;98354.45;116179;1183;69040;-76
2021/09/07 05:01:39;;;;;;;13.80;6.50;;;;;;;11.47;74.31;98355.15;116164;1184;60367;-75
2021/09/07 05:04:09;;;;;;;9.80;6.40;;;;;;;11.78;73.51;98355.14;116217;1182;60344;-77
2021/09/07 05:06:38;;;;;;;11.30;6.10;;;;;;;11.99;73.58;98354.73;116140;1179;71265;-75
2021/09/07 05:09:07;;;;;;;13.00;6.30;;;;;;;12.22;72.09;98359.34;116190;1183;68215;-75
2021/09/07 05:11:36;;;;;;;16.90;6.10;;;;;;;12.53;71.57;98360.17;116094;1184;69221;-73
2021/09/07 05:14:06;;;;;;;11.40;6.20;;;;;;;12.89;71.08;98361.24;116160;1180;60305;-74
2021/09/07 05:16:35;;;;;;;;;;;;;;;13.21;69.99;98362.33;116224;1179;60336;-76
2021/09/07 05:19:04;;;;;;;18.30;7.00;;;;;;;13.44;69.05;98363.42;116174;1183;71917;-76
2021/09/07 05:21:35;;;;;;;15.70;6.60;;;;;;;13.74;67.79;98362.94;116083;1184;69175;-75
2021/09/07 05:24:04;;;;;;;9.50;5.80;;;;;;;14.12;69.05;98369.52;116165;1183;69248;-76
2021/09/07 05:26:33;;;;;;;16.10;7.30;;;;;;;14.34;66.91;98372.06;116202;1178;60346;-77
2021/09/07 05:29:02;;;;;;;16.60;7.70;;;;;;;14.60;66.65;98372.35;116223;1179;60289;-72
2021/09/07 05:31:32;;;;;;;15.50;7.70;;;;;;;14.95;65.10;98372.08;116186;1184;72195;-73
2021/09/07 05:34:01;;;;;;;17.90;7.50;;;;;;;15.15;65.36;98373.64;116180;1179;68203;-74
2021/09/07 05:36:31;;;;;;;13.80;7.00;;;;;;;15.18;62.96;98375.92;116180;1180;68338;-77
2021/09/07 05:39:00;;;;;;;15.00;6.80;;;;;;;15.26;62.61;98379.27;116188;1181;60356;-76
2021/09/07 05:41:29;;;;;;;16.90;6.90;;;;;;;15.46;62.43;98380.73;116187;1184;60346;-73
2021/09/07 05:43:58;;;;;;;17.60;6.60;;;;;;;15.67;61.33;98386.42;116180;1183;71293;-75
2021/09/07 05:46:28;;;;;;;11.90;5.60;;;;;;;15.87;61.00;98378.72;116169;1183;69020;-74
2021/09/07 05:48:57;;;;;;;8.80;5.60;;;;;;;15.95;59.52;98381.79;116147;1179;69406;-73
2021/09/07 05:51:26;;;;;;;11.00;5.40;;;;;;;16.03;59.78;98379.99;116188;1182;60346;-76
2021/09/07 05:53:55;;;;;;;13.40;7.10;;;;;;;16.32;59.46;98384.20;116208;1183;60304;-75
2021/09/07 05:56:24;;;;;;;14.00;5.70;;;;;;;16.54;59.19;98381.76;116201;1183;72004;-70
2021/09/07 05:58:53;;;;;;;9.40;5.30;;;;;;;16.70;58.21;98382.08;116228;1184;68458;-74
2021/09/07 06:01:23;;;;;;;13.20;5.60;;;;;;;16.45;57.21;98380.17;116228;1184;68580;-75
2021/09/07 06:03:52;;;;;;;9.20;5.90;;;;;;;16.81;57.18;98380.21;116141;1183;60712;-77
2021/09/07 06:06:23;;;;;;;14.00;5.60;;;;;;;17.03;57.80;98381.14;115989;1185;60343;-77
2021/09/07 06:08:52;;;;;;;11.80;5.90;;;;;;;17.26;57.18;98380.77;116189;1184;72142;-71
2021/09/07 06:11:21;;;;;;;17.70;6.50;;;;;;;17.63;55.49;98377.95;116217;1184;68241;-76
2021/09/07 06:13:50;;;;;;;14.90;6.10;;;;;;;17.97;54.75;98381.70;116182;1183;68492;-75
2021/09/07 06:16:21;;;;;;;12.20;6.00;;;;;;;18.33;53.14;98381.45;116177;1179;60388;-72
2021/09/07 06:18:50;;;;;;;13.60;7.20;;;;;;;18.62;51.92;98379.74;116172;1183;60348;-75
2021/09/07 06:21:19;;;;;;;14.40;7.40;;;;;;;18.99;52.16;98382.81;116193;1179;71655;-78
2021/09/07 06:23:59;;;;;;;14.40;6.10;;;;;;;19.25;50.45;98380.60;116216;1184;68307;-72
2021/09/07 06:26:30;;;;;;;18.40;6.40;;;;;;;19.41;50.20;98383.41;116193;1184;68512;-74
2021/09/07 06:28:59;;;;;;;14.00;5.70;;;;;;;19.55;49.12;98385.15;116183;1183;60681;-77
2021/09/07 06:31:28;;;;;;;10.30;5.00;;;;;;;19.63;48.87;98380.23;116216;1183;60423;-73
2021/09/07 06:33:57;;;;;;;12.00;5.40;;;;;;;19.80;48.93;98383.58;116206;1183;71928;-75
2021/09/07 06:36:26;;;;;;;15.10;5.90;;;;;;;20.01;47.98;98388.31;116170;1184;68562;-71
2021/09/07 06:38:55;;;;;;;11.50;5.70;;;;;;;20.18;47.78;98383.48;116168;1179;69139;-74
2021/09/07 06:41:24;;;;;;;7.80;5.00;;;;;;;20.28;46.91;98392.60;116187;1184;60351;-71
2021/09/07 06:43:53;;;;;;;9.00;4.90;;;;;;;20.45;46.04;98393.41;116136;1182;60370;-74
2021/09/07 06:46:22;;;;;;;10.60;5.00;;;;;;;20.42;45.36;98393.08;116194;1179;72294;-73
2021/09/07 06:48:51;;;;;;;11.00;4.90;;;;;;;20.57;45.14;98390.02;116271;1179;69251;-75
2021/09/07 06:51:20;;;;;;;12.30;5.10;;;;;;;20.49;44.31;98392.50;116127;1184;69219;-72
2021/09/07 06:53:49;;;;;;;11.50;5.10;;;;;;;20.39;44.41;98395.88;116178;1183;60287;-74
2021/09/07 06:56:18;;;;;;;15.80;5.00;;;;;;;20.36;44.92;98400.77;116201;1184;60372;-75
2021/09/07 06:58:47;;;;;;;9.20;5.10;;;;;;;20.50;43.88;98405.69;116181;1179;72157;-74
2021/09/07 07:01:16;;;;;;;14.40;5.20;;;;;;;20.54;43.46;98408.92;116216;1183;69139;-72
2021/09/07 07:03:46;;;;;;;13.00;5.50;;;;;;;20.55;43.54;98407.54;116193;1184;68244;-73
2021/09/07 07:06:15;;;;;;;11.00;5.40;;;;;;;20.48;44.03;98410.23;116137;1179;60389;-73
2021/09/07 07:08:44;;;;;;;9.30;5.00;;;;;;;20.52;43.31;98410.94;116226;1179;60590;-73
2021/09/07 07:11:13;;;;;;;9.00;5.20;;;;;;;20.66;43.75;98408.27;116204;1183;71344;-74
2021/09/07 07:13:42;;;;;;;11.80;4.90;;;;;;;20.70;43.04;98405.77;116217;1183;69294;-76
2021/09/07 07:16:11;;;;;;;8.50;4.70;;;;;;;20.67;43.64;98410.23;116099;1184;69209;-72
2021/09/07 07:18:40;;;;;;;17.30;5.50;;;;;;;20.88;43.16;98412.46;116171;1180;60355;-76
2021/09/07 07:21:09;;;;;;;10.60;5.30;;;;;;;21.05;43.12;98410.73;116214;1183;60285;-73
2021/09/07 07:23:38;;;;;;;12.30;5.40;;;;;;;21.18;42.70;98411.61;116221;1183;72143;-69
2021/09/07 07:26:07;;;;;;;12.70;5.00;;;;;;;21.43;42.27;98415.75;116210;1183;67564;-72
2021/09/07 07:28:42;;;;;;;10.80;5.10;;;;;;;21.62;41.95;98415.39;116151;1179;68538;-75
2021/09/07 07:31:13;;;;;;;9.30;5.30;;;;;;;21.87;41.66;98419.21;116161;1180;60282;-73
2021/09/07 07:33:42;;;;;;;12.00;5.80;;;;;;;22.11;40.83;98420.14;116168;1181;60298;-73
2021/09/07 07:36:11;;;;;;;14.30;5.50;;;;;;;21.85;41.07;98421.49;116221;1183;71641;-74
2021/09/07 07:38:40;;;;;;;12.30;5.60;;;;;;;21.85;41.70;98422.22;116207;1180;67254;-71
2021/09/07 07:41:09;;;;;;;9.60;5.60;;;;;;;22.18;41.29;98428.42;116209;1179;69250;-72
2021/09/07 07:43:44;;;;;;;9.70;5.50;;;;;;;22.12;40.92;98430.83;116233;1179;60321;-72
2021/09/07 07:46:14;;;;;;;7.30;4.90;;;;;;;21.90;41.27;98428.13;116000;1184;60388;-74
2021/09/07 07:48:44;;;;;;;9.40;6.20;;;;;;;21.94;41.27;98427.20;116181;1184;71965;-75
2021/09/07 07:51:13;;;;;;;10.50;5.90;;;;;;;21.75;41.47;98433.42;116188;1183;68456;-72
2021/09/07 07:53:42;;;;;;;8.40;5.80;;;;;;;22.05;41.23;98429.96;116166;1179;69305;-74
2021/09/07 07:56:11;;;;;;;8.00;5.00;;;;;;;22.42;40.39;98426.55;116208;1183;60333;-73
2021/09/07 07:58:40;;;;;;;8.20;5.30;;;;;;;22.62;39.63;98431.42;116184;1179;60320;-73
2021/09/07 08:01:09;;;;;;;9.30;5.20;;;;;;;22.57;39.62;98429.67;116195;1180;71430;-75
2021/09/07 08:03:44;;;;;;;8.00;5.40;;;;;;;22.83;39.58;98434.26;116241;1183;69192;-71
2021/09/07 08:06:14;;;;;;;12.20;5.40;;;;;;;23.17;39.62;98428.44;116252;1180;69182;-71
2021/09/07 08:08:43;;;;;;;8.30;5.60;;;;;;;23.47;38.20;98427.63;116197;1184;60358;-74
2021/09/07 08:11:13;;;;;;;9.90;5.50;;;;;;;23.43;38.45;98428.98;116205;1184;60306;-75
2021/09/07 08:13:42;;;;;;;10.70;5.40;;;;;;;23.67;37.49;98429.83;116212;1180;72134;-75
2021/09/07 08:16:12;;;;;;;9.10;4.90;;;;;;;24.08;37.43;98432.19;116233;1184;69379;-71
2021/09/07 08:18:41;;;;;;;8.10;5.00;;;;;;;24.30;36.48;98430.89;116206;1179;68427;-73
2021/09/07 08:21:10;;;;;;;7.80;5.10;;;;;;;24.14;36.20;98429.27;116222;1184;60313;-72
2021/09/07 08:23:39;;;;;;;15.70;5.60;;;;;;;24.56;36.51;98431.39;116244;1182;60301;-71
2021/09/07 08:26:08;;;;;;;9.20;5.30;;;;;;;25.47;35.85;98434.52;116230;1178;71254;-72
2021/09/07 08:28:37;;;;;;;8.60;5.70;;;;;;;25.74;34.25;98432.94;116214;1184;67426;-72
2021/09/07 08:31:06;;;;;;;8.90;5.80;;;;;;;25.70;33.38;98431.77;116239;1183;68450;-75
2021/09/07 08:33:35;;;;;;;11.60;6.10;;;;;;;24.82;34.84;98430.69;116247;1179;60335;-73
2021/09/07 08:36:05;;;;;;;9.20;5.80;;;;;;;24.65;34.83;98430.05;116239;1180;60336;-72
2021/09/07 08:38:34;;;;;;;10.10;5.90;;;;;;;24.28;36.15;98426.97;115969;1185;72160;-73
2021/09/07 08:41:03;;;;;;;9.20;6.10;;;;;;;24.62;35.14;98423.83;116218;1184;69088;-72
2021/09/07 08:43:34;;;;;;;8.60;5.40;;;;;;;24.90;35.90;98424.46;116195;1184;68248;-77
2021/09/07 08:46:05;;;;;;;12.00;5.80;;;;;;;25.64;34.78;98426.96;116192;1182;60355;-77
2021/09/07 08:48:34;;;;;;;8.90;5.30;;;;;;;26.12;33.94;98427.85;116270;1179;60334;-79
2021/09/07 08:51:03;;;;;;;11.00;5.70;;;;;;;26.39;32.96;98424.27;116150;1182;71697;-80
2021/09/07 08:53:40;;;;;;;9.60;6.00;;;;;;;26.52;32.78;98427.14;116222;1184;68476;-81
2021/09/07 08:56:10;;;;;;;10.00;5.40;;;;;;;26.32;32.83;98431.42;116246;1180;69246;-73
2021/09/07 08:58:39;;;;;;;9.80;6.10;;;;;;;26.16;32.79;98438.67;116244;1184;60374;-77
2021/09/07 09:01:13;;;;;;;9.10;5.80;;;;;;;26.05;32.43;98435.76;116255;1183;60350;-80
2021/09/07 09:03:46;;;;;;;9.70;5.40;;;;;;;26.02;32.43;98430.41;116184;1179;71406;-73
2021/09/07 09:06:26;;;;;;;7.80;5.10;;;;;;;25.80;32.98;98430.69;116282;1184;69197;-81
2021/09/07 09:09:06;;;;;;;7.60;5.60;;;;;;;26.46;32.22;98428.30;116269;1179;68424;-78
2021/09/07 09:11:54;;;;;;;11.30;5.00;;;;;;;26.97;31.05;98424.17;116296;1179;60348;-80
2021/09/07 09:14:36;;;;;;;8.60;5.00;;;;;;;26.94;31.27;98424.04;116246;1183;60330;-77
2021/09/07 09:17:17;;;;;;;9.80;5.20;;;;;;;27.33;31.33;98418.44;116129;1184;71630;-82
2021/09/07 09:19:53;;;;;;;8.10;5.40;;;;;;;27.02;31.53;98420.00;116192;1179;68113;-75
2021/09/07 09:22:41;;;;;;;8.10;5.30;;;;;;;28.32;28.85;98417.82;116202;1184;69230;-77
2021/09/07 09:25:19;;;;;;;9.10;5.10;;;;;;;26.42;31.41;98417.17;116291;1180;61165;-78
2021/09/07 09:28:05;;;;;;;9.40;5.30;;;;;;;27.24;30.82;98418.19;116236;1183;60333;-76
2021/09/07 09:30:39;;;;;;;7.00;4.90;;;;;;;27.59;29.89;98415.88;116215;1180;72077;-73
2021/09/07 09:33:14;;;;;;;8.50;5.30;;;;;;;26.66;31.24;98416.89;116275;1184;68484;-79
2021/09/07 09:35:48;;;;;;;8.20;5.40;;;;;;;26.87;30.49;98414.52;116130;1184;68422;-82
2021/09/07 09:38:19;;;;;;;10.30;5.50;;;;;;;26.18;31.99;98418.17;116302;1182;60359;-80
2021/09/07 09:41:00;;;;;;;8.10;5.40;;;;;;;26.34;31.93;98415.59;116057;1185;60383;-82
2021/09/07 09:43:38;;;;;;;8.10;5.40;;;;;;;27.10;30.85;98414.71;116266;1180;72173;-81
2021/09/07 09:46:28;;;;;;;9.80;5.20;;;;;;;27.39;30.44;98411.91;116234;1179;69207;-81
2021/09/07 09:49:15;;;;;;;8.50;5.30;;;;;;;27.68;29.91;98409.11;116227;1180;69150;-81
2021/09/07 09:51:44;;;;;;;8.10;5.40;;;;;;;28.04;29.69;98406.92;116174;1183;60787;-76
2021/09/07 09:54:30;;;;;;;7.00;5.00;;;;;;;28.15;28.85;98409.17;116217;1184;60371;-80
2021/09/07 09:57:01;;;;;;;7.80;5.40;;;;;;;28.53;27.90;98402.63;116270;1183;72164;-80
2021/09/07 09:59:31;;;;;;;9.70;6.00;;;;;;;29.02;27.55;98397.16;116278;1183;68455;-82
2021/09/07 10:02:01;;;;;;;7.60;5.10;;;;;;;28.87;28.64;98393.98;116284;1184;69427;-81
2021/09/07 10:04:31;;;;;;;10.10;5.10;;;;;;;28.76;29.29;98397.87;116206;1180;60334;-81
2021/09/07 10:07:00;;;;;;;7.80;5.60;;;;;;;28.42;28.54;98399.14;116254;1184;60352;-80
2021/09/07 10:09:30;;;;;;;;;;;;;;;28.57;26.92;98395.15;116215;1184;72122;-81
2021/09/07 10:12:14;;;;;;;8.70;4.90;;;;;;;28.82;27.90;98392.52;116232;1183;68603;-81
2021/09/07 10:14:54;;;;;;;7.70;4.80;;;;;;;28.94;27.75;98393.88;116242;1184;69505;-80
2021/09/07 10:17:29;;;;;;;7.30;4.90;;;;;;;29.36;27.68;98391.04;116266;1183;60358;-79
2021/09/07 10:20:46;;;;;;;9.80;5.00;;;;;;;28.98;27.34;98391.07;116237;1179;60354;-73
2021/09/07 10:25:56;;;;;;;9.00;4.90;;;;;;;28.08;29.03;98389.13;116279;1184;68256;-81
2021/09/07 10:28:42;;;;;;;8.90;5.70;;;;;;;28.63;28.14;98385.67;116062;1183;69871;-80
2021/09/07 10:31:15;;;;;;;8.00;5.20;;;;;;;29.43;26.97;98385.90;116320;1179;60292;-82
2021/09/07 10:33:51;;;;;;;9.10;5.40;;;;;;;30.22;26.00;98388.20;116247;1182;60800;-72
2021/09/07 10:36:26;;;;;;;7.60;4.70;;;;;;;30.56;23.84;98386.17;116218;1179;72549;-75
2021/09/07 10:39:01;;;;;;;12.70;5.50;;;;;;;30.31;23.52;98385.30;116054;1185;68784;-74
2021/09/07 10:41:34;;;;;;;8.80;5.40;;;;;;;30.22;23.84;98381.10;116091;1182;69245;-78
2021/09/07 10:44:26;;;;;;;7.40;5.10;;;;;;;29.96;24.04;98378.66;116184;1180;60339;-80
2021/09/07 10:46:55;;;;;;;10.50;5.30;;;;;;;29.93;24.80;98378.95;116154;1182;60286;-82
2021/09/07 10:49:25;;;;;;;7.30;4.70;;;;;;;29.86;24.87;98372.60;116091;1181;71404;-72
2021/09/07 10:55:15;;;;;;;9.30;5.20;;;;;;;30.83;23.80;98367.27;116174;1184;69317;-81
2021/09/07 10:57:52;;;;;;;7.20;5.40;;;;;;;30.79;23.79;98366.55;115849;1184;60457;-78
2021/09/07 11:00:21;;;;;;;6.90;4.70;;;;;;;30.76;24.12;98361.79;115823;1187;60402;-79
2021/09/07 11:02:56;;;;;;;8.30;5.40;;;;;;;30.22;24.39;98361.71;115724;1185;72170;-80
2021/09/07 11:05:26;;;;;;;9.20;5.20;;;;;;;31.09;23.87;98360.36;115929;1184;69128;-75
2021/09/07 11:08:00;;;;;;;8.00;5.30;;;;;;;30.84;24.00;98364.00;115677;1185;69251;-74
2021/09/07 11:10:33;;;;;;;9.30;5.00;;;;;;;31.10;22.43;98362.25;115691;1187;60334;-74
2021/09/07 11:13:04;;;;;;;9.20;5.40;;;;;;;30.03;24.42;98362.55;115830;1184;60471;-75
2021/09/07 11:15:36;;;;;;;8.00;5.20;;;;;;;30.33;23.95;98359.61;115772;1187;72020;-73
2021/09/07 11:18:08;;;;;;;8.60;4.80;;;;;;;30.53;24.09;98357.21;115738;1184;69088;-75
2021/09/07 11:20:49;;;;;;;7.60;4.80;;;;;;;30.81;22.71;98358.27;115850;1187;69604;-73
2021/09/07 11:23:27;;;;;;;9.20;4.90;;;;;;;30.33;23.38;98354.02;115834;1185;60477;-74
2021/09/07 11:26:06;;;;;;;7.70;4.80;;;;;;;29.86;23.69;98357.15;115851;1187;60350;-73
2021/09/07 11:28:37;;;;;;;10.30;5.20;;;;;;;30.50;23.07;98351.02;115878;1187;72653;-70
2021/09/07 11:31:08;;;;;;;7.10;5.00;;;;;;;30.50;23.07;98347.22;115887;1185;68343;-74
2021/09/07 11:33:39;;;;;;;6.70;4.60;;;;;;;30.00;23.75;98346.98;116254;1184;68446;-74
2021/09/07 11:36:16;;;;;;;8.40;5.10;;;;;;;30.21;23.10;98339.36;116176;1180;60429;-75
2021/09/07 11:38:51;;;;;;;9.70;5.00;;;;;;;30.97;23.29;98340.52;116261;1181;60365;-74
2021/09/07 11:41:22;;;;;;;7.90;4.90;;;;;;;31.34;22.08;98336.02;116239;1184;72283;-73
2021/09/07 11:43:56;;;;;;;9.00;4.90;;;;;;;31.76;21.69;98336.50;116255;1184;68791;-72
2021/09/07 11:46:37;;;;;;;9.10;4.80;;;;;;;31.41;21.43;98334.99;116271;1184;69207;-72
2021/09/07 11:49:08;;;;;;;9.70;5.10;;;;;;;31.02;21.43;98339.89;116280;1184;60283;-73